Latest Weather Observations for Palmerville

IDQ60801

Issued at 10:32 am EST Monday 21 August 2017 (issued every 30 minutes, with the page automatically refreshed every 10 minutes)

About weather observations | Map of weather stations | Latest weather observations for QLD | Other Formats
Station Details ID: 028004 Name: PALMERVILLE Lat: -16.00 Lon: 144.08 Height: 203.8 m
Data from the previous 72 hours. | See also: Recent months at Palmerville
Date/Time
EST
Temp
°C
App
Temp
°C
Dew
Point
°C
Rel
Hum
%
Delta-T
°C
Wind Press
QNH
hPa
Press
MSL
hPa
Rain since
9am
mm
Dir  Spd
km/h
Gust
km/h
Spd
kts
Gust
kts
21/10:30am 27.0 25.9 13.0 42 8.3 E 11 15 6 8 1017.4 1016.5 0.0
21/10:00am 25.0 23.8 12.9 47 7.1 NE 11 19 6 10 1017.5 1016.6 0.0
21/09:30am 23.9 22.7 12.8 49 6.4 ENE 11 19 6 10 1017.5 1016.6 0.0
21/09:00am 23.0 22.4 13.5 55 5.6 E 9 13 5 7 1017.3 1016.4 0.0
21/08:30am 20.2 20.4 12.9 63 4.2 SSW 4 7 2 4 1017.1 1016.2 0.0
21/08:00am 18.3 19.3 13.2 72 2.9 CALM 0 0 0 0 1016.7 1015.8 0.0
21/07:30am 14.9 15.7 12.6 86 1.3 CALM 0 0 0 0 1016.4 1015.5 0.0
21/07:00am 12.6 12.8 10.7 88 1.0 CALM 0 0 0 0 1016.0 1015.1 0.0
21/06:30am 12.9 13.3 11.1 89 1.0 CALM 0 0 0 0 1015.5 1014.6 0.0
21/06:00am 13.3 13.6 11.0 86 1.2 CALM 0 0 0 0 1015.2 1014.3 0.0
21/05:30am 13.8 14.2 11.1 84 1.4 CALM 0 0 0 0 1015.0 1014.1 0.0
21/05:00am 14.4 14.2 11.9 85 1.4 NNW 4 6 2 3 1014.7 1013.8 0.0
21/04:30am 14.3 14.8 11.6 84 1.5 CALM 0 0 0 0 1014.4 1013.5 0.0
21/04:00am 14.9 15.5 12.0 83 1.6 CALM 0 0 0 0 1014.4 1013.5 0.0
21/03:30am 15.2 15.6 11.4 78 2.1 CALM 0 0 0 0 1014.5 1013.6 0.0
21/03:00am 16.3 16.5 11.9 75 2.4 NNE 2 6 1 3 1014.6 1013.7 0.0
21/02:30am 17.3 17.4 12.6 74 2.6 NNE 4 7 2 4 1014.9 1014.0 0.0
21/02:00am 17.6 17.3 12.7 73 2.8 ENE 6 9 3 5 1015.0 1014.1 0.0
21/01:30am 17.7 17.3 12.4 71 3.0 ESE 6 9 3 5 1015.1 1014.2 0.0
21/01:00am 18.1 18.0 12.1 68 3.3 ESE 4 7 2 4 1015.2 1014.3 0.0
21/12:30am 19.3 19.0 12.8 66 3.7 ENE 6 11 3 6 1015.6 1014.7 0.0
21/12:00am 19.7 18.8 12.5 63 4.1 NE 9 17 5 9 1015.5 1014.6 0.0
 
Date/Time
EST
Temp
°C
App
Temp
°C
Dew
Point
°C
Rel
Hum
%
Delta-T
°C
Wind Press
QNH
hPa
Press
MSL
hPa
Rain since
9am
mm
Dir  Spd
km/h
Gust
km/h
Spd
kts
Gust
kts
20/11:30pm 20.1 19.1 12.3 61 4.4 NE 9 15 5 8 1015.7 1014.8 0.0
20/11:00pm 20.3 19.2 12.0 59 4.7 NNE 9 15 5 8 1015.6 1014.7 0.0
20/10:30pm 20.7 19.1 11.6 56 5.1 NE 11 20 6 11 1015.5 1014.6 0.0
20/10:00pm 21.0 19.0 11.6 55 5.3 NE 13 19 7 10 1015.4 1014.5 0.0
20/09:30pm 21.6 19.3 11.6 53 5.6 NE 15 24 8 13 1015.5 1014.6 0.0
20/09:00pm 22.5 20.0 12.4 52 5.8 ENE 17 22 9 12 1015.5 1014.6 0.0
20/08:30pm 23.3 21.2 12.3 50 6.3 NE 15 24 8 13 1015.0 1014.1 0.0
20/08:00pm 24.3 21.9 12.6 48 6.8 NE 17 24 9 13 1014.6 1013.7 0.0
20/07:30pm 25.7 23.5 12.2 43 7.8 ENE 15 26 8 14 1013.8 1012.8 0.0
20/07:00pm 27.2 25.6 11.7 38 9.0 NNE 11 15 6 8 1013.2 1012.2 0.0
20/06:30pm 28.1 26.1 11.6 36 9.6 NNE 13 17 7 9 1012.6 1011.7 0.0
20/06:00pm 29.1 26.3 11.2 33 10.4 NE 17 26 9 14 1012.4 1011.5 0.0
20/05:30pm 30.7 29.2 10.6 29 11.6 NNE 9 19 5 10 1012.0 1011.1 0.0
20/05:00pm 33.0 29.8 2.9 15 15.5 E 9 15 5 8 1011.8 1010.9 0.0
20/04:30pm 33.4 30.2 3.3 15 15.7 S 9 13 5 7 1011.6 1010.7 0.0
20/04:00pm 33.8 31.3 4.5 16 15.6 SE 7 13 4 7 1011.7 1010.8 0.0
20/03:30pm 33.0 30.7 4.7 17 15.0 SE 6 13 3 7 1011.7 1010.8 0.0
20/03:00pm 32.7 30.1 6.1 19 14.4 SE 9 15 5 8 1012.1 1011.2 0.0
20/02:30pm 33.0 31.0 7.1 20 14.3 SSW 7 15 4 8 1012.5 1011.6 0.0
20/02:00pm 32.9 31.2 8.4 22 13.8 E 7 13 4 7 1013.1 1012.1 0.0
20/01:30pm 31.4 28.6 7.1 22 13.3 SSW 11 19 6 10 1013.6 1012.6 0.0
20/01:00pm 31.6 29.2 8.6 24 12.9 ENE 11 19 6 10 1014.1 1013.1 0.0
20/12:30pm 30.0 28.1 9.0 27 11.8 NNE 9 15 5 8 1014.8 1013.9 0.0
20/12:00pm 29.8 28.0 9.3 28 11.5 SE 9 22 5 12 1015.5 1014.6 0.0
20/11:30am 29.4 27.6 9.5 29 11.2 ESE 9 17 5 9 1016.1 1015.2 0.0
20/11:00am 28.6 26.8 9.3 30 10.8 ENE 9 20 5 11 1016.6 1015.7 0.0
20/10:30am 28.0 26.7 11.1 35 9.7 E 9 22 5 12 1017.0 1016.1 0.0
20/10:00am 26.8 25.6 11.7 39 8.7 E 9 20 5 11 1017.1 1016.2 0.0
20/09:30am 25.7 24.5 13.9 48 7.0 E 13 17 7 9 1017.1 1016.2 0.0
20/09:00am 23.9 23.8 14.9 57 5.4 E 9 15 5 8 1016.9 1016.0 0.0
20/08:30am 22.0 22.3 15.1 65 4.1 E 7 11 4 6 1016.7 1015.8 0.0
20/08:00am 20.1 20.5 14.7 71 3.2 ESE 6 9 3 5 1016.6 1015.7 0.0
20/07:30am 16.3 17.1 13.8 85 1.4 ESE 2 7 1 4 1016.5 1015.6 0.0
20/07:00am 14.4 15.2 12.6 89 1.0 CALM 0 0 0 0 1016.4 1015.5 0.0
20/06:30am 13.7 14.3 11.8 88 1.0 CALM 0 6 0 3 1016.2 1015.3 0.0
20/06:00am 13.7 14.1 11.2 85 1.3 CALM 0 0 0 0 1015.9 1015.0 0.0
20/05:30am 13.9 14.3 11.1 83 1.5 CALM 0 6 0 3 1015.6 1014.7 0.0
20/05:00am 14.0 14.4 11.3 84 1.4 CALM 0 6 0 3 1015.5 1014.6 0.0
20/04:30am 14.5 15.1 11.8 84 1.5 CALM 0 0 0 0 1015.4 1014.5 0.0
20/04:00am 14.8 15.4 11.8 82 1.6 CALM 0 0 0 0 1015.3 1014.4 0.0
20/03:30am 15.3 15.5 11.9 80 1.9 SSE 2 6 1 3 1015.4 1014.5 0.0
20/03:00am 15.8 16.5 12.2 79 2.0 CALM 0 0 0 0 1015.4 1014.5 0.0
20/02:30am 16.5 17.3 12.7 78 2.1 CALM 0 0 0 0 1015.4 1014.5 0.0
20/02:00am 16.7 16.7 12.3 75 2.4 SE 4 7 2 4 1015.4 1014.5 0.0
20/01:30am 17.3 17.3 12.4 73 2.7 S 4 13 2 7 1015.3 1014.4 0.0
20/01:00am 17.7 18.2 11.7 68 3.3 CALM 0 0 0 0 1014.9 1014.0 0.0
20/12:30am 19.0 19.6 11.8 63 4.0 CALM 0 0 0 0 1015.0 1014.1 0.0
20/12:00am 19.8 19.2 11.8 60 4.5 N 6 7 3 4 1015.1 1014.2 0.0
 
Date/Time
EST
Temp
°C
App
Temp
°C
Dew
Point
°C
Rel
Hum
%
Delta-T
°C
Wind Press
QNH
hPa
Press
MSL
hPa
Rain since
9am
mm
Dir  Spd
km/h
Gust
km/h
Spd
kts
Gust
kts
19/11:30pm 20.6 20.8 11.8 57 4.9 E 2 7 1 4 1015.2 1014.3 0.0
19/11:00pm 22.3 21.7 11.7 51 6.0 E 6 7 3 4 1015.4 1014.5 0.0
19/10:30pm 24.0 23.6 12.3 48 6.7 E 6 9 3 5 1015.5 1014.6 0.0
19/10:00pm 25.0 24.4 12.2 44 7.4 ENE 7 11 4 6 1015.6 1014.7 0.0
19/09:30pm 25.4 24.2 11.6 42 7.9 NE 9 17 5 9 1015.4 1014.5 0.0
19/09:00pm 25.6 24.0 10.2 38 8.6 NE 9 13 5 7 1015.0 1014.1 0.0
19/08:30pm 27.1 25.0 9.9 34 9.7 NE 11 15 6 8 1014.8 1013.9 0.0
19/08:00pm 27.6 25.8 9.4 32 10.2 NE 9 15 5 8 1014.5 1013.6 0.0
19/07:30pm 28.6 26.9 9.8 31 10.6 NE 9 15 5 8 1013.9 1012.9 0.0
19/07:00pm 29.8 28.1 11.3 32 10.8 NE 11 17 6 9 1013.4 1012.4 0.0
19/06:30pm 30.7 28.8 9.0 26 12.2 N 9 15 5 8 1012.4 1011.5 0.0
19/06:00pm 32.6 31.4 4.4 17 14.9 CALM 0 4 0 2 1012.0 1011.1 0.0
19/05:30pm 34.0 31.8 5.5 17 15.4 NNE 6 7 3 4 1011.7 1010.8 0.0
19/05:00pm 35.0 31.5 3.5 14 16.6 E 11 19 6 10 1011.7 1010.8 0.0
19/04:30pm 35.2 31.4 3.7 14 16.7 SSE 13 24 7 13 1011.7 1010.8 0.0
19/04:00pm 35.7 31.6 4.1 14 16.9 SSE 15 26 8 14 1011.7 1010.8 0.0
19/03:30pm 36.1 32.8 4.4 14 17.0 ESE 11 19 6 10 1011.8 1010.9 0.0
19/03:00pm 35.5 31.7 3.9 14 16.8 SSW 13 24 7 13 1011.9 1011.0 0.0
19/02:30pm 36.9 33.9 4.0 13 17.7 SE 9 15 5 8 1012.2 1011.3 0.0
19/02:00pm 36.0 31.3 3.3 13 17.3 S 17 28 9 15 1012.6 1011.7 0.0
19/01:30pm 35.9 30.6 2.1 12 17.5 SE 19 35 10 19 1013.2 1012.2 0.0
19/01:00pm 35.3 32.8 6.6 17 15.9 NNE 9 17 5 9 1013.7 1012.7 0.0
19/12:30pm 34.9 32.9 8.6 20 15.0 NNW 9 19 5 10 1014.5 1013.6 0.0
19/12:00pm 32.9 31.4 9.0 23 13.6 ENE 7 17 4 9 1015.2 1014.3 0.0
19/11:30am 31.5 30.1 10.8 28 12.0 NNE 9 17 5 9 1015.8 1014.9 0.0
19/11:00am 30.2 28.9 11.2 31 11.0 NE 9 17 5 9 1016.3 1015.4 0.0
19/10:30am 28.4 28.0 12.3 37 9.5 S 6 9 3 5 1016.8 1015.9 0.0
19/10:00am 26.6 26.8 13.0 43 8.0 S 4 11 2 6 1017.0 1016.1 0.0
19/09:30am 24.3 24.7 13.8 52 6.2 W 4 7 2 4 1017.1 1016.2 0.0
19/09:00am 22.1 22.5 13.7 59 4.9 E 4 9 2 5 1017.1 1016.2 0.0
19/08:30am 20.0 19.8 13.0 64 4.0 E 6 7 3 4 1016.8 1015.9 0.0
19/08:00am 17.9 17.6 13.2 74 2.7 E 7 11 4 6 1016.7 1015.8 0.0
19/07:30am 14.9 15.0 12.8 87 1.2 E 4 9 2 5 1016.5 1015.6 0.0
19/07:00am 12.9 12.2 12.1 95 0.4 E 7 9 4 5 1016.2 1015.3 0.0
19/06:30am 12.0 11.5 10.6 91 0.7 SE 4 9 2 5 1015.8 1014.9 0.0
19/06:00am 12.1 12.3 10.7 91 0.7 CALM 0 0 0 0 1015.6 1014.7 0.0
19/05:30am 12.4 12.8 11.1 92 0.7 CALM 0 0 0 0 1015.6 1014.7 0.0
19/05:00am 12.7 13.1 11.3 91 0.7 CALM 0 0 0 0 1015.1 1014.2 0.0
19/04:30am 12.6 11.5 10.7 88 1.0 SE 7 7 4 4 1014.9 1014.0 0.0
19/04:00am 13.4 13.8 11.3 87 1.1 CALM 0 0 0 0 1014.9 1014.0 0.0
19/03:30am 13.9 14.3 11.4 85 1.3 CALM 0 0 0 0 1014.9 1014.0 0.0
19/03:00am 14.4 14.9 11.6 83 1.5 CALM 0 6 0 3 1015.0 1014.1 0.0
19/02:30am 14.7 14.5 11.7 82 1.6 SSE 4 9 2 5 1015.2 1014.3 0.0
19/02:00am 15.4 16.0 11.8 79 2.0 CALM 0 0 0 0 1015.2 1014.3 0.0
19/01:30am 16.2 16.4 12.0 76 2.3 ESE 2 6 1 3 1015.3 1014.4 0.0
19/01:00am 17.3 16.7 12.2 72 2.8 NNE 7 11 4 6 1015.5 1014.6 0.0
19/12:30am 17.8 17.4 12.5 71 3.0 NE 6 7 3 4 1015.8 1014.9 0.0
19/12:00am 18.8 18.7 13.4 71 3.1 NNW 6 11 3 6 1016.0 1015.1 0.0
 
Date/Time
EST
Temp
°C
App
Temp
°C
Dew
Point
°C
Rel
Hum
%
Delta-T
°C
Wind Press
QNH
hPa
Press
MSL
hPa
Rain since
9am
mm
Dir  Spd
km/h
Gust
km/h
Spd
kts
Gust
kts
18/11:30pm 17.3 17.1 10.4 64 3.7 NNE 2 7 1 4 1015.6 1014.7 0.0
18/11:00pm 18.6 18.7 10.2 58 4.5 CALM 0 0 0 0 1015.9 1015.0 0.0
18/10:30pm 19.6 18.0 8.6 49 5.8 E 7 9 4 5 1016.0 1015.1 0.0
18/10:00pm 20.2 19.8 9.7 51 5.7 E 2 6 1 3 1015.9 1015.0 0.0
18/09:30pm 21.6 21.8 10.7 50 6.0 CALM 0 0 0 0 1015.7 1014.8 0.0
18/09:00pm 23.5 23.8 10.9 45 7.1 CALM 0 0 0 0 1015.5 1014.6 0.0
18/08:30pm 25.7 25.0 9.9 37 8.8 NE 4 9 2 5 1015.0 1014.1 0.0
18/08:00pm 27.8 26.4 10.9 35 9.7 N 9 17 5 9 1014.3 1013.4 0.0
18/07:30pm 29.5 25.8 6.2 23 12.4 NE 15 20 8 11 1013.8 1012.8 0.0
18/07:00pm 29.6 26.2 2.0 17 13.7 NE 9 17 5 9 1013.6 1012.6 0.0
18/06:30pm 30.7 26.9 2.0 16 14.4 ENE 11 17 6 9 1013.2 1012.2 0.0
18/06:00pm 32.5 28.2 3.5 16 15.1 NE 15 20 8 11 1012.5 1011.6 0.0
18/05:30pm 33.7 29.4 5.3 17 15.3 N 17 22 9 12 1011.9 1011.0 0.0
18/05:00pm 34.9 31.8 7.1 18 15.5 N 13 22 7 12 1011.6 1010.7 0.0
18/04:30pm 35.2 31.9 6.5 17 15.9 N 13 20 7 11 1011.3 1010.4 0.0
18/04:00pm 36.5 33.4 3.7 13 17.5 ESE 9 15 5 8 1011.2 1010.3 0.0
18/03:30pm 36.4 33.1 2.5 12 17.7 SE 9 15 5 8 1011.5 1010.6 0.0
18/03:00pm 36.0 31.9 2.1 12 17.6 ENE 13 20 7 11 1011.8 1010.9 0.0
18/02:30pm 35.7 32.7 4.1 14 16.9 SE 9 17 5 9 1012.3 1011.4 0.0
18/02:00pm 35.5 32.5 3.9 14 16.8 SE 9 17 5 9 1012.8 1011.9 0.0
18/01:30pm 35.2 31.5 4.7 15 16.4 ENE 13 20 7 11 1013.4 1012.4 0.0
18/01:00pm 33.6 30.4 5.2 17 15.3 NE 11 19 6 10 1014.0 1013.0 0.0
18/12:30pm 31.9 29.7 6.2 20 13.9 ENE 7 13 4 7 1014.7 1013.8 0.0
18/12:00pm 31.4 30.0 9.6 26 12.4 ESE 7 17 4 9 1015.2 1014.3 0.0
18/11:30am 30.7 29.5 11.6 31 11.2 NE 9 13 5 7 1015.8 1014.9 0.0
18/11:00am 28.9 28.2 11.9 35 9.9 ENE 7 11 4 6 1016.4 1015.5 0.0

Other Formats:

Comma delimited format used in spreadsheet applications
http://www.bom.gov.au/fwo/IDQ60801/IDQ60801.94276.axf

JavaScript Object Notation format (JSON) in row-major order
http://www.bom.gov.au/fwo/IDQ60801/IDQ60801.94276.json